createdAt,value
2022-11-19T00:01:31.456Z,97101.25
2022-11-19T00:03:58.265Z,97094.31
2022-11-19T00:06:27.156Z,97084.38
2022-11-19T00:08:54.639Z,97087.81
2022-11-19T00:11:45.522Z,97094.31
2022-11-19T00:14:14.543Z,97095.44
2022-11-19T00:16:41.989Z,97092.41
2022-11-19T00:19:11.288Z,97095.88
2022-11-19T00:21:39.647Z,97097.44
2022-11-19T00:24:07.189Z,97090.13
2022-11-19T00:26:33.768Z,97099.75
2022-11-19T00:29:02.815Z,97094.03
2022-11-19T00:31:31.507Z,97089.41
2022-11-19T00:33:58.022Z,97101.72
2022-11-19T00:36:24.748Z,97099.44
2022-11-19T00:38:51.244Z,97100.22
2022-11-19T00:41:22.159Z,97100.63
2022-11-19T00:43:49.403Z,97105.63
2022-11-19T00:46:18.902Z,97101.06
2022-11-19T00:48:52.438Z,97101.81
2022-11-19T00:51:21.270Z,97107.53
2022-11-19T00:53:47.810Z,97109.81
2022-11-19T00:56:19.193Z,97100.63
2022-11-19T00:58:47.210Z,97112.50
2022-11-19T01:01:15.254Z,97114.00
2022-11-19T01:03:51.529Z,97114.38
2022-11-19T01:06:34.476Z,97122.41
2022-11-19T01:09:01.786Z,97113.94
2022-11-19T01:11:32.211Z,97116.22
2022-11-19T01:13:59.353Z,97118.91
2022-11-19T01:16:29.350Z,97116.91
2022-11-19T01:18:56.211Z,97124.28
2022-11-19T01:21:28.142Z,97119.31
2022-11-19T01:23:56.084Z,97127.34
2022-11-19T01:26:23.339Z,97128.91
2022-11-19T01:28:52.553Z,97134.66
2022-11-19T01:31:22.537Z,97135.38
2022-11-19T01:33:51.739Z,97139.94
2022-11-19T01:36:28.272Z,97137.63
2022-11-19T01:38:55.962Z,97134.94
2022-11-19T01:41:35.464Z,97141.06
2022-11-19T01:44:07.121Z,97140.72
2022-11-19T01:46:39.233Z,97141.13
2022-11-19T01:49:20.573Z,97145.38
2022-11-19T01:51:53.943Z,97144.59
2022-11-19T01:54:31.477Z,97141.53
2022-11-19T01:57:08.536Z,97148.06
2022-11-19T01:59:35.543Z,97144.13
2022-11-19T02:07:26.407Z,97148.16
2022-11-19T02:09:58.249Z,97157.38
2022-11-19T02:12:42.534Z,97160.06
2022-11-19T02:15:34.048Z,97155.09
2022-11-19T02:18:08.439Z,97155.53
2022-11-19T02:20:58.658Z,97154.25
2022-11-19T02:24:00.788Z,97154.69
2022-11-19T02:26:56.130Z,97151.22
2022-11-19T02:29:32.027Z,97145.84
2022-11-19T02:32:04.731Z,97145.06
2022-11-19T02:34:40.380Z,97145.06
2022-11-19T02:37:20.909Z,97145.00
2022-11-19T02:39:58.726Z,97155.03
2022-11-19T02:42:36.093Z,97149.59
2022-11-19T02:45:13.798Z,97151.94
2022-11-19T02:47:44.899Z,97151.53
2022-11-19T02:50:31.788Z,97151.16
2022-11-19T02:52:58.825Z,97149.59
2022-11-19T02:55:25.826Z,97147.28
2022-11-19T02:57:59.844Z,97150.31
2022-11-19T03:00:46.450Z,97141.84
2022-11-19T03:03:35.244Z,97153.25
2022-11-19T03:06:11.977Z,97149.28
2022-11-19T03:08:40.608Z,97153.81
2022-11-19T03:11:10.129Z,97148.44
2022-11-19T03:14:08.270Z,97147.25
2022-11-19T03:16:41.496Z,97151.78
2022-11-19T03:19:27.217Z,97146.69
2022-11-19T03:22:02.477Z,97155.03
2022-11-19T03:24:38.331Z,97154.88
2022-11-19T03:27:12.023Z,97150.59
2022-11-19T03:29:45.708Z,97154.69
2022-11-19T03:32:18.390Z,97156.09
2022-11-19T03:34:49.150Z,97159.75
2022-11-19T03:37:28.193Z,97163.09
2022-11-19T03:40:02.360Z,97158.69
2022-11-19T03:42:35.219Z,97151.38
2022-11-19T03:45:15.274Z,97149.31
2022-11-19T03:47:44.090Z,97159.19
2022-11-19T03:50:28.512Z,97157.63
2022-11-19T03:53:03.854Z,97156.09
2022-11-19T03:55:41.414Z,97160.63
2022-11-19T03:58:14.198Z,97151.41
2022-11-19T04:00:40.825Z,97152.47
2022-11-19T04:03:13.635Z,97155.06
2022-11-19T04:05:40.170Z,97151.88
2022-11-19T04:08:06.779Z,97150.59
2022-11-19T04:10:35.111Z,97153.19
2022-11-19T04:13:01.837Z,97152.75
2022-11-19T04:15:31.056Z,97156.56
2022-11-19T04:17:59.343Z,97153.81
2022-11-19T04:23:20.334Z,97156.03
2022-11-19T04:25:47.660Z,97143.09
2022-11-19T04:28:14.175Z,97149.22
2022-11-19T04:30:40.783Z,97148.34
2022-11-19T04:33:07.260Z,97146.84
2022-11-19T04:35:36.088Z,97156.75
2022-11-19T04:38:04.481Z,97154.41
2022-11-19T04:40:30.940Z,97162.38
2022-11-19T04:42:57.428Z,97156.94
2022-11-19T04:45:30.527Z,97154.25
2022-11-19T04:47:57.026Z,97155.81
2022-11-19T04:50:23.580Z,97150.13
2022-11-19T04:52:52.254Z,97149.66
2022-11-19T04:55:21.026Z,97156.16
2022-11-19T04:57:49.649Z,97163.41
2022-11-19T05:00:22.235Z,97165.72
2022-11-19T05:02:48.707Z,97162.38
2022-11-19T05:05:15.280Z,97165.06
2022-11-19T05:07:48.360Z,97165.06
2022-11-19T05:10:14.839Z,97159.00
2022-11-19T05:12:41.472Z,97162.91
2022-11-19T05:15:08.765Z,97162.53
2022-11-19T05:17:35.480Z,97173.25
2022-11-19T05:20:02.269Z,97162.97
2022-11-19T05:22:29.110Z,97163.75
2022-11-19T05:25:03.216Z,97169.88
2022-11-19T05:27:36.290Z,97169.09
2022-11-19T05:30:03.751Z,97166.09
2022-11-19T05:32:30.317Z,97165.38
2022-11-19T05:34:58.560Z,97166.50
2022-11-19T05:37:25.037Z,97170.75
2022-11-19T05:39:51.807Z,97166.94
2022-11-19T05:42:20.444Z,97164.25
2022-11-19T05:44:46.913Z,97162.34
2022-11-19T05:47:15.860Z,97167.72
2022-11-19T05:49:53.129Z,97163.47
2022-11-19T05:52:22.400Z,97162.69
2022-11-19T05:54:48.977Z,97172.97
2022-11-19T05:57:17.293Z,97170.63
2022-11-19T05:59:45.637Z,97177.47
2022-11-19T06:02:12.421Z,97188.00
2022-11-19T06:04:40.675Z,97189.41
2022-11-19T06:07:07.424Z,97182.06
2022-11-19T06:09:34.018Z,97189.94
2022-11-19T06:12:00.641Z,97184.41
2022-11-19T06:14:27.561Z,97174.13
2022-11-19T06:16:57.413Z,97181.72
2022-11-19T06:19:25.226Z,97182.41
2022-11-19T06:21:52.930Z,97183.53
2022-11-19T06:24:20.653Z,97181.97
2022-11-19T06:26:49.395Z,97188.03
2022-11-19T06:29:17.489Z,97192.50
2022-11-19T06:31:44.478Z,97191.63
2022-11-19T06:34:13.284Z,97201.47
2022-11-19T06:36:43.900Z,97211.31
2022-11-19T06:39:14.447Z,97215.69
2022-11-19T06:41:44.316Z,97218.59
2022-11-19T06:44:10.777Z,97223.84
2022-11-19T06:46:38.576Z,97225.22
2022-11-19T06:49:05.888Z,97232.81
2022-11-19T06:51:32.822Z,97239.28
2022-11-19T06:54:03.923Z,97238.94
2022-11-19T06:56:30.413Z,97240.16
2022-11-19T06:58:58.388Z,97249.81
2022-11-19T07:01:25.078Z,97262.16
2022-11-19T07:03:51.849Z,97267.03
2022-11-19T07:06:18.364Z,97266.78
2022-11-19T07:08:46.614Z,97275.78
2022-11-19T07:11:27.942Z,97272.19
2022-11-19T07:13:58.453Z,97281.81
2022-11-19T07:16:31.048Z,97283.63
2022-11-19T07:19:03.417Z,97274.06
2022-11-19T07:21:30.825Z,97276.28
2022-11-19T07:23:58.407Z,97276.69
2022-11-19T07:26:25.585Z,97277.38
2022-11-19T07:28:52.193Z,97277.34
2022-11-19T07:31:19.060Z,97272.63
2022-11-19T07:33:45.751Z,97278.31
2022-11-19T07:36:18.211Z,97279.56
2022-11-19T07:38:45.336Z,97283.66
2022-11-19T07:41:30.878Z,97280.63
2022-11-19T07:44:00.837Z,97290.31
2022-11-19T07:46:27.347Z,97291.22
2022-11-19T07:48:56.680Z,97293.66
2022-11-19T07:51:24.257Z,97290.13
2022-11-19T07:53:51.558Z,97294.25
2022-11-19T07:56:18.834Z,97299.50
2022-11-19T07:58:45.347Z,97291.06
2022-11-19T08:01:14.646Z,97291.56
2022-11-19T08:03:46.166Z,97298.13
2022-11-19T08:06:15.505Z,97298.03
2022-11-19T08:08:45.328Z,97305.66
2022-11-19T08:11:13.991Z,97312.69
2022-11-19T08:13:40.865Z,97306.88
2022-11-19T08:16:13.084Z,97309.25
2022-11-19T08:18:39.898Z,97303.72
2022-11-19T08:21:12.682Z,97292.84
2022-11-19T08:23:43.217Z,97295.81
2022-11-19T08:26:09.724Z,97297.97
2022-11-19T08:28:36.227Z,97299.81
2022-11-19T08:31:09.142Z,97300.16
2022-11-19T08:33:40.469Z,97300.84
2022-11-19T08:36:07.107Z,97293.91
2022-11-19T08:38:38.613Z,97305.41
2022-11-19T08:41:24.439Z,97304.63
2022-11-19T08:43:51.198Z,97307.72
2022-11-19T08:46:17.721Z,97310.41
2022-11-19T08:48:44.296Z,97304.94
2022-11-19T08:51:17.377Z,97311.84
2022-11-19T08:53:43.829Z,97325.16
2022-11-19T08:56:18.056Z,97328.50
2022-11-19T08:58:49.459Z,97330.19
2022-11-19T09:01:21.297Z,97328.19
2022-11-19T09:03:51.535Z,97330.19
2022-11-19T09:06:18.013Z,97318.53
2022-11-19T09:08:44.620Z,97317.09
2022-11-19T09:11:16.662Z,97316.81
2022-11-19T09:13:43.461Z,97321.88
2022-11-19T09:16:12.647Z,97324.22
2022-11-19T09:18:40.286Z,97324.25
2022-11-19T09:21:08.968Z,97325.38
2022-11-19T09:23:35.814Z,97328.03
2022-11-19T09:26:06.128Z,97325.66
2022-11-19T09:28:32.802Z,97328.72
2022-11-19T09:31:02.506Z,97330.63
2022-11-19T09:33:31.021Z,97327.16
2022-11-19T09:35:57.566Z,97339.91
2022-11-19T09:38:24.046Z,97336.81
2022-11-19T09:40:54.136Z,97338.34
2022-11-19T09:43:44.636Z,97331.84
2022-11-19T09:46:45.166Z,97332.63
2022-11-19T09:49:18.577Z,97338.44
2022-11-19T09:51:59.193Z,97333.84
2022-11-19T09:54:26.654Z,97338.13
2022-11-19T09:57:00.396Z,97342.41
2022-11-19T09:59:35.127Z,97336.66
2022-11-19T10:02:03.813Z,97335.78
2022-11-19T10:04:33.568Z,97342.09
2022-11-19T10:07:38.413Z,97340.34
2022-11-19T10:10:34.297Z,97329.88
2022-11-19T10:13:14.656Z,97322.81
2022-11-19T10:16:22.814Z,97323.81
2022-11-19T10:19:01.512Z,97323.09
2022-11-19T10:21:34.168Z,97322.44
2022-11-19T10:24:18.542Z,97323.66
2022-11-19T10:26:55.541Z,97322.56
2022-11-19T10:29:27.228Z,97324.38
2022-11-19T10:31:53.813Z,97319.78
2022-11-19T10:34:30.492Z,97324.47
2022-11-19T10:37:12.893Z,97321.81
2022-11-19T10:39:56.170Z,97308.91
2022-11-19T10:42:30.188Z,97316.44
2022-11-19T10:45:07.391Z,97310.56
2022-11-19T10:47:57.823Z,97307.06
2022-11-19T10:50:27.796Z,97301.97
2022-11-19T10:52:57.708Z,97301.44
2022-11-19T10:55:35.276Z,97298.00
2022-11-19T10:58:10.648Z,97297.06
2022-11-19T11:00:44.326Z,97296.19
2022-11-19T11:03:25.389Z,97295.22
2022-11-19T11:06:08.449Z,97293.22
2022-11-19T11:08:51.799Z,97289.53
2022-11-19T11:11:53.084Z,97289.31
2022-11-19T11:14:41.582Z,97287.41
2022-11-19T11:17:26.181Z,97277.47
2022-11-19T11:20:03.943Z,97277.44
2022-11-19T11:22:37.001Z,97283.38
2022-11-19T11:25:07.266Z,97274.81
2022-11-19T11:27:40.494Z,97272.81
2022-11-19T11:30:12.693Z,97276.63
2022-11-19T11:32:40.476Z,97263.28
2022-11-19T11:35:29.304Z,97263.00
2022-11-19T11:37:56.204Z,97257.03
2022-11-19T11:40:23.490Z,97269.38
2022-11-19T11:42:53.106Z,97265.28
2022-11-19T11:45:32.694Z,97266.25
2022-11-19T11:48:09.260Z,97269.31
2022-11-19T11:50:37.246Z,97255.97
2022-11-19T11:53:10.113Z,97255.72
2022-11-19T11:55:38.806Z,97258.78
2022-11-19T11:58:26.887Z,97255.03
2022-11-19T12:00:55.963Z,97254.72
2022-11-19T12:03:22.581Z,97252.09
2022-11-19T12:06:10.616Z,97254.88
2022-11-19T12:09:05.249Z,97251.81
2022-11-19T12:11:56.348Z,97251.13
2022-11-19T12:15:15.962Z,97251.13
2022-11-19T12:18:07.037Z,97257.72
2022-11-19T12:21:04.326Z,97263.94
2022-11-19T12:23:40.225Z,97262.75
2022-11-19T12:26:30.765Z,97260.41
2022-11-19T12:29:32.491Z,97256.19
2022-11-19T12:32:01.936Z,97251.56
2022-11-19T12:34:51.415Z,97263.09
2022-11-19T12:37:37.597Z,97265.81
2022-11-19T12:40:22.454Z,97258.09
2022-11-19T12:43:18.158Z,97255.78
2022-11-19T12:46:03.417Z,97250.00
2022-11-19T12:48:46.041Z,97257.69
2022-11-19T12:51:34.346Z,97268.13
2022-11-19T12:54:38.417Z,97270.09
2022-11-19T12:57:45.598Z,97259.66
2022-11-19T13:00:19.973Z,97262.34
2022-11-19T13:03:16.616Z,97250.38
2022-11-19T13:06:02.950Z,97253.09
2022-11-19T13:08:49.729Z,97246.50
2022-11-19T13:11:23.292Z,97248.41
2022-11-19T13:14:04.421Z,97249.06
2022-11-19T13:16:34.426Z,97251.00
2022-11-19T13:19:32.675Z,97257.28
2022-11-19T13:21:59.237Z,97250.75
2022-11-19T13:24:43.496Z,97260.00
2022-11-19T13:27:20.154Z,97257.31
2022-11-19T13:29:55.992Z,97258.09
2022-11-19T13:32:45.832Z,97256.94
2022-11-19T13:35:22.036Z,97259.28
2022-11-19T13:38:01.083Z,97259.69
2022-11-19T13:40:52.017Z,97261.59
2022-11-19T13:43:39.383Z,97254.25
2022-11-19T13:46:13.261Z,97261.59
2022-11-19T13:48:45.280Z,97258.84
2022-11-19T13:51:34.692Z,97261.53
2022-11-19T13:54:04.720Z,97259.63
2022-11-19T13:56:49.219Z,97257.69
2022-11-19T14:02:48.452Z,97260.00
2022-11-19T14:05:40.993Z,97258.06
2022-11-19T14:08:41.405Z,97253.81
2022-11-19T14:11:31.781Z,97256.91
2022-11-19T14:14:44.586Z,97251.47
2022-11-19T14:17:58.004Z,97250.31
2022-11-19T14:20:55.432Z,97255.34
2022-11-19T14:24:00.970Z,97257.66
2022-11-19T14:26:52.373Z,97251.81
2022-11-19T14:29:19.440Z,97251.00
2022-11-19T14:32:01.165Z,97250.66
2022-11-19T14:34:31.109Z,97250.69
2022-11-19T14:37:00.979Z,97250.00
2022-11-19T14:39:33.488Z,97253.06
2022-11-19T14:42:22.907Z,97252.28
2022-11-19T14:45:01.444Z,97263.88
2022-11-19T14:47:33.515Z,97258.41
2022-11-19T14:50:02.673Z,97258.03
2022-11-19T14:52:36.541Z,97259.91
2022-11-19T14:55:22.447Z,97265.25
2022-11-19T14:58:20.753Z,97270.19
2022-11-19T15:00:47.778Z,97266.66
2022-11-19T15:03:22.384Z,97270.84
2022-11-19T15:05:49.853Z,97275.78
2022-11-19T15:08:24.040Z,97274.63
2022-11-19T15:11:11.460Z,97284.97
2022-11-19T15:13:44.221Z,97289.94
2022-11-19T15:16:27.142Z,97288.34
2022-11-19T15:19:29.718Z,97293.31
2022-11-19T15:22:21.403Z,97289.00
2022-11-19T15:25:17.523Z,97292.00
2022-11-19T15:27:56.227Z,97293.09
2022-11-19T15:30:27.577Z,97296.09
2022-11-19T15:33:18.904Z,97300.31
2022-11-19T15:36:10.052Z,97302.19
2022-11-19T15:38:47.821Z,97304.44
2022-11-19T15:41:19.132Z,97307.47
2022-11-19T15:44:00.181Z,97310.50
2022-11-19T15:46:32.446Z,97318.16
2022-11-19T15:49:19.570Z,97310.81
2022-11-19T15:51:58.642Z,97310.41
2022-11-19T15:54:30.131Z,97310.34
2022-11-19T15:57:23.341Z,97317.25
2022-11-19T16:00:01.456Z,97315.72
2022-11-19T16:02:36.612Z,97308.38
2022-11-19T16:05:03.917Z,97324.09
2022-11-19T16:07:31.055Z,97317.97
2022-11-19T16:09:59.345Z,97317.53
2022-11-19T16:12:47.303Z,97326.78
2022-11-19T16:18:32.682Z,97325.59
2022-11-19T16:21:01.572Z,97336.66
2022-11-19T16:23:28.117Z,97339.28
2022-11-19T16:25:56.493Z,97348.41
2022-11-19T16:28:27.694Z,97349.88
2022-11-19T16:31:03.342Z,97355.91
2022-11-19T16:33:35.738Z,97355.00
2022-11-19T16:36:21.262Z,97364.09
2022-11-19T16:38:52.454Z,97361.56
2022-11-19T16:41:40.884Z,97356.00
2022-11-19T16:44:21.517Z,97364.31
2022-11-19T16:46:48.685Z,97362.66
2022-11-19T16:49:32.824Z,97367.56
2022-11-19T16:52:00.134Z,97372.47
2022-11-19T16:54:49.719Z,97377.75
2022-11-19T16:57:23.618Z,97378.44
2022-11-19T16:59:52.611Z,97377.59
2022-11-19T17:02:21.577Z,97382.16
2022-11-19T17:04:52.230Z,97382.91
2022-11-19T17:07:26.512Z,97384.38
2022-11-19T17:10:34.180Z,97390.47
2022-11-19T17:13:04.171Z,97388.91
2022-11-19T17:15:46.778Z,97389.72
2022-11-19T17:18:23.760Z,97394.28
2022-11-19T17:20:58.127Z,97395.84
2022-11-19T17:23:34.417Z,97395.09
2022-11-19T17:26:05.859Z,97404.66
2022-11-19T17:28:42.617Z,97402.00
2022-11-19T17:31:22.954Z,97407.38
2022-11-19T17:33:58.005Z,97419.66
2022-11-19T17:36:36.685Z,97419.66
2022-11-19T17:39:10.138Z,97426.97
2022-11-19T17:41:55.613Z,97424.28
2022-11-19T17:44:40.319Z,97429.66
2022-11-19T17:47:22.477Z,97436.59
2022-11-19T17:49:50.489Z,97438.47
2022-11-19T17:52:20.259Z,97441.16
2022-11-19T17:54:50.804Z,97444.97
2022-11-19T17:57:17.342Z,97444.97
2022-11-19T17:59:43.861Z,97451.16
2022-11-19T18:02:18.651Z,97451.91
2022-11-19T18:04:46.605Z,97448.09
2022-11-19T18:07:13.951Z,97455.72
2022-11-19T18:09:43.587Z,97451.03
2022-11-19T18:15:06.948Z,97460.69
2022-11-19T18:17:33.472Z,97461.38
2022-11-19T18:20:04.336Z,97464.06
2022-11-19T18:22:32.646Z,97457.84
2022-11-19T18:24:59.419Z,97455.16
2022-11-19T18:27:32.389Z,97454.72
2022-11-19T18:29:58.870Z,97457.75
2022-11-19T18:32:25.416Z,97460.81
2022-11-19T18:34:51.878Z,97463.50
2022-11-19T18:37:22.815Z,97456.16
2022-11-19T18:39:49.286Z,97458.41
2022-11-19T18:42:15.908Z,97457.97
2022-11-19T18:44:45.219Z,97472.88
2022-11-19T18:47:14.632Z,97463.66
2022-11-19T18:49:41.969Z,97471.34
2022-11-19T18:52:16.354Z,97469.78
2022-11-19T18:54:43.174Z,97462.09
2022-11-19T18:57:10.964Z,97469.78
2022-11-19T18:59:38.720Z,97465.91
2022-11-19T19:02:06.330Z,97471.97
2022-11-19T19:04:32.914Z,97469.66
2022-11-19T19:07:07.568Z,97468.03
2022-11-19T19:09:34.155Z,97468.03
2022-11-19T19:12:19.006Z,97472.59
2022-11-19T19:14:51.374Z,97477.97
2022-11-19T19:17:18.641Z,97482.22
2022-11-19T19:19:54.142Z,97483.69
2022-11-19T19:22:23.356Z,97480.16
2022-11-19T19:24:53.822Z,97483.19
2022-11-19T19:27:23.477Z,97492.38
2022-11-19T19:29:50.029Z,97494.66
2022-11-19T19:32:16.777Z,97493.88
2022-11-19T19:34:43.453Z,97495.41
2022-11-19T19:37:10.016Z,97492.31
2022-11-19T19:39:38.782Z,97495.34
2022-11-19T19:42:05.496Z,97494.56
2022-11-19T19:44:32.228Z,97497.59
2022-11-19T19:46:59.430Z,97502.97
2022-11-19T19:49:26.059Z,97506.78
2022-11-19T19:51:55.017Z,97499.94
2022-11-19T19:54:21.515Z,97499.16
2022-11-19T19:56:50.299Z,97506.34
2022-11-19T19:59:16.843Z,97497.53
2022-11-19T20:01:47.462Z,97496.81
2022-11-19T20:04:18.641Z,97495.25
2022-11-19T20:06:47.329Z,97504.53
2022-11-19T20:09:14.104Z,97504.88
2022-11-19T20:11:40.621Z,97507.91
2022-11-19T20:14:07.342Z,97508.69
2022-11-19T20:16:34.185Z,97504.44
2022-11-19T20:19:02.138Z,97511.38
2022-11-19T20:21:36.378Z,97505.94
2022-11-19T20:24:11.801Z,97509.03
2022-11-19T20:26:41.864Z,97509.38
2022-11-19T20:29:11.490Z,97511.66
2022-11-19T20:31:38.190Z,97508.53
2022-11-19T20:34:05.486Z,97517.28
2022-11-19T20:36:35.200Z,97515.03
2022-11-19T20:39:06.463Z,97515.72
2022-11-19T20:41:53.782Z,97514.88
2022-11-19T20:44:21.043Z,97515.56
2022-11-19T20:47:06.412Z,97505.94
2022-11-19T20:49:39.417Z,97512.47
2022-11-19T20:52:11.000Z,97513.94
2022-11-19T20:54:37.488Z,97508.91
2022-11-19T20:57:04.352Z,97517.75
2022-11-19T20:59:33.575Z,97515.06
2022-11-19T21:02:00.150Z,97523.53
2022-11-19T21:04:28.905Z,97518.50
2022-11-19T21:06:55.639Z,97523.09
2022-11-19T21:09:22.325Z,97527.00
2022-11-19T21:11:48.967Z,97529.25
2022-11-19T21:14:17.199Z,97520.78
2022-11-19T21:16:43.709Z,97527.00
2022-11-19T21:19:12.588Z,97519.38
2022-11-19T21:21:39.209Z,97523.19
2022-11-19T21:24:06.200Z,97514.00
2022-11-19T21:26:33.127Z,97517.13
2022-11-19T21:29:06.543Z,97512.13
2022-11-19T21:31:38.905Z,97517.13
2022-11-19T21:34:09.546Z,97514.78
2022-11-19T21:36:38.599Z,97507.88
2022-11-19T21:39:08.674Z,97511.66
2022-11-19T21:41:35.713Z,97510.09
2022-11-19T21:44:03.446Z,97516.16
2022-11-19T21:46:30.534Z,97518.84
2022-11-19T21:48:57.350Z,97515.41
2022-11-19T21:51:25.135Z,97514.63
2022-11-19T21:53:57.501Z,97521.47
2022-11-19T21:56:25.335Z,97523.72
2022-11-19T21:58:51.878Z,97515.25
2022-11-19T22:01:24.914Z,97520.59
2022-11-19T22:03:51.421Z,97517.94
2022-11-19T22:06:17.897Z,97520.59
2022-11-19T22:08:46.326Z,97522.50
2022-11-19T22:11:31.192Z,97520.16
2022-11-19T22:14:07.486Z,97522.78
2022-11-19T22:16:38.296Z,97528.91
2022-11-19T22:19:08.073Z,97524.75
2022-11-19T22:21:37.595Z,97531.34
2022-11-19T22:24:04.346Z,97524.00
2022-11-19T22:26:31.096Z,97527.03
2022-11-19T22:28:58.097Z,97521.56
2022-11-19T22:31:28.490Z,97525.00
2022-11-19T22:33:55.567Z,97533.84
2022-11-19T22:36:23.081Z,97538.34
2022-11-19T22:38:50.871Z,97537.13
2022-11-19T22:41:19.286Z,97537.13
2022-11-19T22:43:56.551Z,97537.50
2022-11-19T22:46:23.705Z,97538.25
2022-11-19T22:48:51.560Z,97540.59
2022-11-19T22:51:23.611Z,97537.50
2022-11-19T22:53:53.182Z,97537.84
2022-11-19T22:56:22.151Z,97540.88
2022-11-19T22:58:50.000Z,97545.09
2022-11-19T23:01:26.745Z,97542.41
2022-11-19T23:03:56.866Z,97541.63
2022-11-19T23:06:24.071Z,97531.69
2022-11-19T23:08:50.834Z,97531.69
2022-11-19T23:11:40.289Z,97532.38
2022-11-19T23:14:15.125Z,97535.06
2022-11-19T23:16:42.405Z,97538.44
2022-11-19T23:19:10.050Z,97543.03
2022-11-19T23:21:37.159Z,97541.81
2022-11-19T23:24:05.719Z,97537.91
2022-11-19T23:26:33.417Z,97536.34
2022-11-19T23:29:00.372Z,97540.94
2022-11-19T23:31:37.164Z,97540.19
2022-11-19T23:34:03.822Z,97545.88
2022-11-19T23:36:33.055Z,97549.69
2022-11-19T23:39:02.318Z,97544.66
2022-11-19T23:41:32.111Z,97541.88
2022-11-19T23:43:59.164Z,97551.38
2022-11-19T23:46:39.483Z,97548.63
2022-11-19T23:49:06.096Z,97547.41
2022-11-19T23:51:35.759Z,97544.63
2022-11-19T23:54:02.845Z,97542.28
2022-11-19T23:56:31.409Z,97539.19
2022-11-19T23:58:59.552Z,97534.94
